Time;durP1;ratioP1;P1;durP2;ratioP2;P2;SDS_P1;SDS_P2;PMS_P1;PMS_P2;Temp;Humidity;BMP_temperature;BMP_pressure;BME280_temperature;BME280_humidity;BME280_pressure;Samples;Min_cycle;Max_cycle;Signal;HPM_P1;HPM_P2
2022/04/30 00:02:12;;;;;;;7.40;4.23;;;;;;;;;;5005657;28;20207;-69
2022/04/30 00:04:41;;;;;;;5.17;3.97;;;;;;;;;;5009467;28;20649;-69
2022/04/30 00:07:07;;;;;;;7.17;4.03;;;;;;;;;;5003768;28;20193;-69
2022/04/30 00:09:32;;;;;;;7.43;4.70;;;;;;;;;;5009252;28;20206;-69
2022/04/30 00:11:58;;;;;;;5.40;4.30;;;;;;;;;;5008547;28;20207;-69
2022/04/30 00:14:24;;;;;;;8.30;5.17;;;;;;;;;;5007597;28;20176;-69
2022/04/30 00:16:49;;;;;;;7.93;4.37;;;;;;;;;;5009872;28;20708;-69
2022/04/30 00:19:15;;;;;;;12.83;5.27;;;;;;;;;;5012142;28;20191;-69
2022/04/30 00:21:40;;;;;;;7.97;4.07;;;;;;;;;;5012946;28;20207;-69
2022/04/30 00:24:05;;;;;;;9.37;4.33;;;;;;;;;;5008646;28;20214;-69
2022/04/30 00:26:31;;;;;;;12.77;5.17;;;;;;;;;;5007779;28;20638;-69
2022/04/30 00:28:56;;;;;;;10.87;5.70;;;;;;;;;;5011885;28;20576;-69
2022/04/30 00:31:21;;;;;;;9.77;5.00;;;;;;;;;;5013999;28;20217;-69
2022/04/30 00:33:48;;;;;;;8.27;4.57;;;;;;;;;;5013577;28;20198;-69
2022/04/30 00:36:16;;;;;;;6.23;4.80;;;;;;;;;;5008251;28;20215;-69
2022/04/30 00:38:42;;;;;;;7.17;4.23;;;;;;;;;;5006244;28;20218;-71
2022/04/30 00:41:08;;;;;;;6.67;4.67;;;;;;;;;;5008900;28;20676;-70
2022/04/30 00:43:46;;;;;;;7.10;5.07;;;;;;;;;;5013413;28;20236;-73
2022/04/30 00:46:15;;;;;;;8.37;4.60;;;;;;;;;;5012524;28;20262;-71
2022/04/30 00:48:41;;;;;;;7.73;5.10;;;;;;;;;;5013677;28;20203;-68
2022/04/30 00:51:09;;;;;;;8.23;5.30;;;;;;;;;;5012060;28;20191;-69
2022/04/30 00:53:35;;;;;;;8.70;5.03;;;;;;;;;;5007508;28;20558;-68
2022/04/30 00:56:00;;;;;;;7.10;4.90;;;;;;;;;;5008428;28;20190;-71
2022/04/30 00:58:26;;;;;;;10.40;5.57;;;;;;;;;;5010903;28;20182;-69
2022/04/30 01:00:51;;;;;;;7.40;4.53;;;;;;;;;;5009581;28;20219;-68
2022/04/30 01:03:16;;;;;;;8.07;5.20;;;;;;;;;;5006274;28;20269;-70
2022/04/30 01:05:41;;;;;;;10.93;4.60;;;;;;;;;;5010562;28;20302;-71
2022/04/30 01:08:07;;;;;;;9.60;4.70;;;;;;;;;;5008399;28;20210;-68
2022/04/30 01:10:32;;;;;;;5.87;4.73;;;;;;;;;;5006092;28;20583;-71
2022/04/30 01:12:58;;;;;;;9.50;5.00;;;;;;;;;;5010826;28;20169;-70
2022/04/30 01:15:24;;;;;;;7.83;5.37;;;;;;;;;;5005997;28;20171;-68
2022/04/30 01:17:49;;;;;;;7.63;4.97;;;;;;;;;;5007867;28;20190;-68
2022/04/30 01:20:14;;;;;;;6.00;4.07;;;;;;;;;;5010752;28;20229;-68
2022/04/30 01:22:50;;;;;;;9.47;4.90;;;;;;;;;;5001763;28;20183;-69
2022/04/30 01:25:16;;;;;;;7.83;4.70;;;;;;;;;;5002809;28;20193;-71
2022/04/30 01:27:42;;;;;;;7.13;4.67;;;;;;;;;;5006430;28;20195;-69
2022/04/30 01:30:07;;;;;;;6.97;4.60;;;;;;;;;;5009086;28;20207;-69
2022/04/30 01:38:02;;;;;;;6.40;4.43;;;;;;;;;;5008903;28;20177;-69
2022/04/30 01:40:29;;;;;;;6.27;4.57;;;;;;;;;;5010266;28;20194;-69
2022/04/30 01:42:58;;;;;;;6.90;4.03;;;;;;;;;;5007753;28;20233;-69
2022/04/30 01:45:24;;;;;;;5.90;3.77;;;;;;;;;;5011354;28;20509;-69
2022/04/30 01:47:50;;;;;;;7.23;4.67;;;;;;;;;;5002392;28;20657;-69
2022/04/30 01:50:15;;;;;;;6.67;5.30;;;;;;;;;;5008892;28;20205;-69
2022/04/30 01:52:41;;;;;;;6.50;4.67;;;;;;;;;;5007705;28;20193;-69
2022/04/30 01:55:06;;;;;;;10.73;5.57;;;;;;;;;;5009962;28;20190;-69
2022/04/30 01:57:31;;;;;;;6.93;4.53;;;;;;;;;;5009834;28;20187;-69
2022/04/30 01:59:57;;;;;;;6.17;4.73;;;;;;;;;;5009845;28;20210;-69
2022/04/30 02:02:24;;;;;;;7.93;5.73;;;;;;;;;;4995623;28;20621;-69
2022/04/30 02:04:54;;;;;;;10.67;6.83;;;;;;;;;;5005811;28;20214;-68
2022/04/30 02:07:20;;;;;;;10.93;7.27;;;;;;;;;;5001540;28;20183;-69
2022/04/30 02:09:45;;;;;;;9.07;5.80;;;;;;;;;;5002401;28;20210;-70
2022/04/30 02:12:10;;;;;;;7.93;5.87;;;;;;;;;;5010504;28;20209;-70
2022/04/30 02:14:38;;;;;;;8.10;6.30;;;;;;;;;;5007724;28;20179;-70
2022/04/30 02:17:05;;;;;;;11.50;7.17;;;;;;;;;;5004981;28;20175;-70
2022/04/30 02:20:18;;;;;;;9.17;6.30;;;;;;;;;;5008515;28;20281;-69
2022/04/30 02:22:17;;;;;;;9.23;6.33;;;;;;;;;;4997142;28;20211;-70
2022/04/30 02:24:42;;;;;;;9.20;7.00;;;;;;;;;;5000199;28;20783;-69
2022/04/30 02:27:07;;;;;;;11.03;7.00;;;;;;;;;;5007492;28;20277;-70
2022/04/30 02:29:32;;;;;;;14.27;6.57;;;;;;;;;;5004100;28;20677;-70
2022/04/30 02:31:57;;;;;;;10.57;6.70;;;;;;;;;;5009028;28;20238;-70
2022/04/30 02:34:23;;;;;;;9.33;7.13;;;;;;;;;;5006874;28;20179;-70
2022/04/30 02:36:48;;;;;;;10.87;7.93;;;;;;;;;;5010163;28;20273;-70
2022/04/30 02:39:14;;;;;;;14.20;7.00;;;;;;;;;;4999664;28;20175;-70
2022/04/30 02:41:39;;;;;;;12.77;7.53;;;;;;;;;;5010467;28;20210;-69
2022/04/30 02:44:05;;;;;;;10.25;6.93;;;;;;;;;;5006309;28;20171;-70
2022/04/30 02:46:31;;;;;;;9.63;7.53;;;;;;;;;;5010860;28;20711;-70
2022/04/30 02:48:56;;;;;;;11.30;7.23;;;;;;;;;;5011553;28;20458;-69
2022/04/30 02:51:21;;;;;;;12.50;7.63;;;;;;;;;;5013927;28;20202;-69
2022/04/30 02:53:46;;;;;;;11.43;7.43;;;;;;;;;;5012235;28;20197;-70
2022/04/30 02:56:11;;;;;;;9.03;7.00;;;;;;;;;;5012317;28;20171;-69
2022/04/30 03:01:21;;;;;;;15.90;8.47;;;;;;;;;;5008705;28;20226;-71
2022/04/30 03:03:46;;;;;;;11.10;7.90;;;;;;;;;;5006488;28;20560;-70
2022/04/30 03:06:13;;;;;;;11.00;8.13;;;;;;;;;;5011208;28;20171;-69
2022/04/30 03:08:39;;;;;;;11.53;8.10;;;;;;;;;;5012455;28;20206;-69
2022/04/30 03:11:04;;;;;;;12.33;7.87;;;;;;;;;;5010325;28;20199;-70
2022/04/30 03:13:30;;;;;;;11.33;7.80;;;;;;;;;;5013297;28;20167;-70
2022/04/30 03:15:56;;;;;;;11.30;7.63;;;;;;;;;;5010301;28;20282;-70
2022/04/30 03:23:51;;;;;;;15.03;8.90;;;;;;;;;;5005572;28;20182;-70
2022/04/30 03:26:17;;;;;;;10.13;7.80;;;;;;;;;;5013601;28;20179;-70
2022/04/30 03:28:43;;;;;;;16.87;8.30;;;;;;;;;;5013486;28;22431;-70
2022/04/30 03:31:10;;;;;;;13.87;8.23;;;;;;;;;;5007818;28;20199;-71
2022/04/30 03:33:35;;;;;;;11.47;7.90;;;;;;;;;;5010623;28;20209;-70
2022/04/30 03:36:00;;;;;;;11.33;8.33;;;;;;;;;;5010551;28;20171;-70
2022/04/30 03:38:26;;;;;;;13.87;8.63;;;;;;;;;;5010877;28;20266;-70
2022/04/30 03:40:51;;;;;;;14.60;7.67;;;;;;;;;;5007411;28;20242;-70
2022/04/30 03:43:17;;;;;;;9.67;8.00;;;;;;;;;;5012641;28;20249;-70
2022/04/30 03:45:43;;;;;;;13.37;9.53;;;;;;;;;;5009438;28;20282;-70
2022/04/30 03:48:08;;;;;;;14.87;8.20;;;;;;;;;;5012297;28;20305;-69
2022/04/30 03:50:33;;;;;;;14.00;8.20;;;;;;;;;;5010254;28;20203;-70
2022/04/30 03:52:58;;;;;;;11.97;8.83;;;;;;;;;;5010680;28;20179;-69
2022/04/30 03:55:25;;;;;;;14.33;9.60;;;;;;;;;;5008598;28;20266;-70
2022/04/30 03:57:50;;;;;;;13.57;8.80;;;;;;;;;;5008516;28;20256;-70
2022/04/30 04:00:15;;;;;;;12.60;9.17;;;;;;;;;;5007702;28;20273;-69
2022/04/30 04:02:41;;;;;;;12.97;9.80;;;;;;;;;;5005714;28;20357;-69
2022/04/30 04:05:13;;;;;;;13.83;9.83;;;;;;;;;;5011190;28;20248;-70
2022/04/30 04:07:38;;;;;;;15.00;9.83;;;;;;;;;;5010433;28;20746;-69
2022/04/30 04:10:04;;;;;;;15.27;10.30;;;;;;;;;;5011686;28;20959;-70
2022/04/30 04:12:29;;;;;;;15.87;9.87;;;;;;;;;;5010894;28;20640;-70
2022/04/30 04:17:38;;;;;;;12.87;10.03;;;;;;;;;;5006429;28;20190;-70
2022/04/30 04:20:08;;;;;;;15.33;10.13;;;;;;;;;;5012817;28;20166;-70
2022/04/30 04:22:33;;;;;;;16.70;11.13;;;;;;;;;;5009850;28;20198;-70
2022/04/30 04:27:42;;;;;;;15.37;10.70;;;;;;;;;;5014323;28;20564;-69
2022/04/30 04:30:08;;;;;;;15.53;11.47;;;;;;;;;;5007733;28;20207;-70
2022/04/30 04:32:33;;;;;;;14.47;10.60;;;;;;;;;;5010652;28;20183;-71
2022/04/30 04:34:58;;;;;;;17.83;11.57;;;;;;;;;;5013102;28;20190;-70
2022/04/30 04:37:23;;;;;;;15.32;10.93;;;;;;;;;;5007391;28;20175;-70
2022/04/30 04:39:49;;;;;;;14.07;10.90;;;;;;;;;;5009159;28;20696;-69
2022/04/30 04:42:14;;;;;;;14.43;10.03;;;;;;;;;;5005774;28;20194;-71
2022/04/30 04:44:39;;;;;;;14.77;11.13;;;;;;;;;;5012900;28;20611;-69
2022/04/30 04:47:04;;;;;;;16.90;10.10;;;;;;;;;;5012117;28;20209;-70
2022/04/30 04:49:31;;;;;;;13.10;10.10;;;;;;;;;;5010288;28;20306;-70
2022/04/30 04:51:57;;;;;;;13.37;9.93;;;;;;;;;;5008685;28;20202;-70
2022/04/30 04:54:22;;;;;;;12.77;10.30;;;;;;;;;;5009160;28;20555;-70
2022/04/30 04:56:47;;;;;;;12.13;9.90;;;;;;;;;;5011029;28;20189;-70
2022/04/30 04:59:13;;;;;;;16.87;10.67;;;;;;;;;;5005678;28;20191;-70
2022/04/30 05:01:39;;;;;;;15.30;10.27;;;;;;;;;;5000392;28;20301;-70
2022/04/30 05:04:04;;;;;;;13.33;9.50;;;;;;;;;;5009307;28;20179;-70
2022/04/30 05:06:30;;;;;;;14.00;9.50;;;;;;;;;;5011524;28;20651;-70
2022/04/30 05:08:55;;;;;;;11.53;9.50;;;;;;;;;;5000332;28;20211;-70
2022/04/30 05:11:20;;;;;;;10.23;9.03;;;;;;;;;;5010565;28;20218;-70
2022/04/30 05:13:45;;;;;;;13.67;9.47;;;;;;;;;;5009321;28;20237;-68
2022/04/30 05:16:11;;;;;;;15.23;9.23;;;;;;;;;;5005101;28;20179;-71
2022/04/30 05:18:37;;;;;;;14.17;9.30;;;;;;;;;;5002408;28;20638;-70
2022/04/30 05:21:02;;;;;;;13.90;9.10;;;;;;;;;;4998482;28;20218;-70
2022/04/30 05:23:27;;;;;;;13.70;9.13;;;;;;;;;;5008747;28;20190;-68
2022/04/30 05:25:53;;;;;;;15.40;8.70;;;;;;;;;;5011507;28;20182;-68
2022/04/30 05:28:18;;;;;;;10.67;8.40;;;;;;;;;;5006959;28;20209;-71
2022/04/30 05:30:43;;;;;;;12.70;8.67;;;;;;;;;;5008159;28;20199;-70
2022/04/30 05:33:09;;;;;;;11.00;8.57;;;;;;;;;;5009766;28;20596;-70
2022/04/30 05:35:34;;;;;;;15.90;9.00;;;;;;;;;;5007644;28;20175;-70
2022/04/30 05:37:59;;;;;;;10.37;9.27;;;;;;;;;;5010266;28;20178;-70
2022/04/30 05:40:24;;;;;;;13.60;8.37;;;;;;;;;;5010798;28;20201;-71
2022/04/30 05:42:49;;;;;;;11.33;8.43;;;;;;;;;;5005919;28;20175;-70
2022/04/30 05:45:14;;;;;;;10.83;8.23;;;;;;;;;;5009342;28;20175;-71
2022/04/30 05:47:40;;;;;;;10.23;9.17;;;;;;;;;;5008586;28;20813;-71
2022/04/30 05:50:06;;;;;;;9.97;7.77;;;;;;;;;;5007203;28;20325;-71
2022/04/30 05:52:33;;;;;;;9.30;8.33;;;;;;;;;;5021089;28;20171;-71
2022/04/30 05:54:59;;;;;;;13.27;9.03;;;;;;;;;;5005417;28;20175;-71
2022/04/30 05:57:24;;;;;;;11.37;8.57;;;;;;;;;;5008956;28;20274;-71
2022/04/30 05:59:49;;;;;;;11.63;8.43;;;;;;;;;;5009285;28;20186;-70
2022/04/30 06:02:14;;;;;;;8.80;7.40;;;;;;;;;;5009739;28;20195;-70
2022/04/30 06:04:40;;;;;;;9.17;7.70;;;;;;;;;;5006827;28;20183;-70
2022/04/30 06:07:05;;;;;;;9.67;8.67;;;;;;;;;;5007685;28;20556;-70
2022/04/30 06:09:30;;;;;;;10.53;8.00;;;;;;;;;;5008869;28;20206;-70
2022/04/30 06:11:55;;;;;;;10.97;7.73;;;;;;;;;;5010186;28;20191;-70
2022/04/30 06:14:20;;;;;;;12.23;8.00;;;;;;;;;;5007477;28;20241;-70
2022/04/30 06:16:46;;;;;;;8.83;7.43;;;;;;;;;;5007409;28;20644;-70
2022/04/30 06:19:11;;;;;;;8.80;7.90;;;;;;;;;;5010797;28;20221;-69
2022/04/30 06:21:37;;;;;;;8.27;7.40;;;;;;;;;;5014057;28;20482;-69
2022/04/30 06:24:02;;;;;;;8.87;7.90;;;;;;;;;;5012416;28;20210;-70
2022/04/30 06:26:27;;;;;;;9.87;7.53;;;;;;;;;;5006630;28;20630;-69
2022/04/30 06:28:52;;;;;;;8.13;7.33;;;;;;;;;;5012922;28;20273;-70
2022/04/30 06:31:17;;;;;;;10.00;6.63;;;;;;;;;;5010883;28;20286;-70
2022/04/30 06:33:43;;;;;;;8.17;6.60;;;;;;;;;;5013172;28;20266;-69
2022/04/30 06:36:08;;;;;;;9.13;6.03;;;;;;;;;;5013851;28;20656;-70
2022/04/30 06:38:33;;;;;;;7.87;6.90;;;;;;;;;;5013315;28;20186;-69
2022/04/30 06:40:59;;;;;;;6.93;6.20;;;;;;;;;;5013232;28;20206;-70
2022/04/30 06:43:24;;;;;;;10.30;6.40;;;;;;;;;;5013005;28;20530;-69
2022/04/30 06:45:49;;;;;;;8.13;6.40;;;;;;;;;;5010198;28;20186;-70
2022/04/30 06:48:14;;;;;;;9.20;6.17;;;;;;;;;;5014203;28;20186;-68
2022/04/30 06:50:39;;;;;;;10.90;7.10;;;;;;;;;;5003025;28;20955;-69
2022/04/30 06:58:41;;;;;;;7.70;5.37;;;;;;;;;;5008702;28;20177;-70
2022/04/30 07:03:55;;;;;;;5.97;4.50;;;;;;;;;;5012444;28;20241;-69
2022/04/30 07:06:20;;;;;;;9.57;5.50;;;;;;;;;;5015042;28;20587;-70
2022/04/30 07:08:46;;;;;;;5.27;4.43;;;;;;;;;;4997723;28;20227;-69
2022/04/30 07:11:11;;;;;;;12.17;3.80;;;;;;;;;;5013492;28;20664;-70
2022/04/30 07:13:37;;;;;;;6.63;4.63;;;;;;;;;;5004008;28;20178;-69
2022/04/30 07:16:03;;;;;;;4.53;3.73;;;;;;;;;;5013411;28;20559;-70
2022/04/30 07:18:29;;;;;;;5.07;3.77;;;;;;;;;;5013013;28;20186;-70
2022/04/30 07:20:55;;;;;;;5.40;4.27;;;;;;;;;;5013977;28;20198;-69
2022/04/30 07:23:20;;;;;;;8.80;4.67;;;;;;;;;;5012352;28;20202;-70
2022/04/30 07:25:46;;;;;;;8.30;5.03;;;;;;;;;;5011517;28;20171;-69
2022/04/30 07:28:11;;;;;;;5.30;4.53;;;;;;;;;;5009637;28;20190;-69
2022/04/30 07:30:36;;;;;;;6.23;4.23;;;;;;;;;;5010440;28;20202;-70
2022/04/30 07:33:01;;;;;;;5.80;4.47;;;;;;;;;;5012941;28;20667;-70
2022/04/30 07:35:26;;;;;;;6.40;4.80;;;;;;;;;;5014537;28;20164;-69
2022/04/30 07:37:51;;;;;;;7.55;5.30;;;;;;;;;;5010133;28;20174;-70
2022/04/30 07:40:17;;;;;;;6.40;4.85;;;;;;;;;;5013816;28;20443;-69
2022/04/30 07:42:42;;;;;;;7.10;4.95;;;;;;;;;;5013766;28;20182;-69
2022/04/30 07:45:07;;;;;;;6.93;4.93;;;;;;;;;;5014177;28;20171;-70
2022/04/30 07:47:32;;;;;;;5.32;4.55;;;;;;;;;;5011875;28;20670;-69
2022/04/30 07:49:58;;;;;;;7.97;4.82;;;;;;;;;;5011704;28;20203;-69
2022/04/30 07:52:23;;;;;;;6.70;4.90;;;;;;;;;;5007070;28;20199;-70
2022/04/30 07:54:48;;;;;;;8.02;5.03;;;;;;;;;;5012534;28;20186;-69
2022/04/30 07:57:13;;;;;;;5.40;4.90;;;;;;;;;;4999978;28;20194;-69
2022/04/30 07:59:38;;;;;;;10.88;4.68;;;;;;;;;;5002387;28;20432;-69
2022/04/30 08:02:04;;;;;;;7.70;4.95;;;;;;;;;;5011097;28;20731;-69
2022/04/30 08:04:29;;;;;;;7.13;5.00;;;;;;;;;;5009966;28;20183;-69
2022/04/30 08:06:55;;;;;;;7.85;4.57;;;;;;;;;;5012796;28;20229;-70
2022/04/30 08:09:20;;;;;;;5.60;4.05;;;;;;;;;;4997698;28;20196;-71
2022/04/30 08:11:45;;;;;;;12.30;4.95;;;;;;;;;;5010584;28;20306;-71
2022/04/30 08:14:11;;;;;;;7.22;4.35;;;;;;;;;;5010085;28;20266;-71
2022/04/30 08:16:36;;;;;;;32.70;8.07;;;;;;;;;;5009095;28;20214;-71
2022/04/30 08:19:01;;;;;;;10.18;5.32;;;;;;;;;;5011727;28;20197;-70
2022/04/30 08:21:26;;;;;;;7.25;5.35;;;;;;;;;;5012042;28;20194;-70
2022/04/30 08:23:52;;;;;;;7.28;5.00;;;;;;;;;;5008958;28;20280;-71
2022/04/30 08:26:17;;;;;;;7.65;5.07;;;;;;;;;;5007955;28;20562;-71
2022/04/30 08:28:42;;;;;;;5.15;4.18;;;;;;;;;;5010597;28;20202;-71
2022/04/30 08:31:07;;;;;;;4.90;4.00;;;;;;;;;;5013203;28;20631;-69
2022/04/30 08:33:33;;;;;;;4.53;4.10;;;;;;;;;;5011811;28;20167;-69
2022/04/30 08:35:58;;;;;;;8.38;4.70;;;;;;;;;;5013089;28;21002;-69
2022/04/30 08:38:23;;;;;;;8.20;4.38;;;;;;;;;;5006116;28;20179;-71
2022/04/30 08:40:48;;;;;;;6.28;4.15;;;;;;;;;;5000243;28;20323;-71
2022/04/30 08:43:14;;;;;;;6.05;4.05;;;;;;;;;;5009163;28;20175;-69
2022/04/30 08:45:40;;;;;;;6.10;4.05;;;;;;;;;;5009340;28;20262;-71
2022/04/30 08:48:07;;;;;;;7.15;4.57;;;;;;;;;;5010531;28;20177;-71
2022/04/30 08:50:32;;;;;;;6.43;4.13;;;;;;;;;;5008842;28;20638;-70
2022/04/30 08:52:57;;;;;;;5.88;4.40;;;;;;;;;;5011256;28;20246;-70
2022/04/30 08:55:22;;;;;;;7.05;3.90;;;;;;;;;;4998594;28;20183;-70
2022/04/30 08:57:47;;;;;;;5.18;4.07;;;;;;;;;;5004463;28;20175;-70
2022/04/30 09:00:13;;;;;;;7.20;4.00;;;;;;;;;;5023925;28;20194;-68
2022/04/30 09:02:48;;;;;;;4.88;3.85;;;;;;;;;;5018424;28;20187;-69
2022/04/30 09:05:14;;;;;;;4.18;3.30;;;;;;;;;;5013108;28;20237;-69
2022/04/30 09:07:39;;;;;;;3.95;3.22;;;;;;;;;;5018423;28;20604;-69
2022/04/30 09:10:05;;;;;;;7.53;3.90;;;;;;;;;;5012388;28;20242;-69
2022/04/30 09:12:31;;;;;;;6.80;4.07;;;;;;;;;;5005173;28;20420;-68
2022/04/30 09:14:58;;;;;;;4.85;3.58;;;;;;;;;;5004063;28;20309;-69
2022/04/30 09:17:25;;;;;;;5.40;3.58;;;;;;;;;;5017589;28;20171;-70
2022/04/30 09:19:51;;;;;;;5.40;3.40;;;;;;;;;;5011288;28;20179;-69
2022/04/30 09:22:16;;;;;;;4.45;3.60;;;;;;;;;;5006818;28;20198;-69
2022/04/30 09:24:48;;;;;;;9.02;4.18;;;;;;;;;;5007255;28;20187;-70
2022/04/30 09:27:17;;;;;;;7.07;3.92;;;;;;;;;;5005966;28;20213;-69
2022/04/30 09:29:43;;;;;;;5.60;4.07;;;;;;;;;;5004508;28;20290;-69
2022/04/30 09:32:08;;;;;;;6.35;3.95;;;;;;;;;;4998563;28;20254;-69
2022/04/30 09:37:42;;;;;;;4.90;3.85;;;;;;;;;;5007216;28;20233;-69
2022/04/30 09:40:08;;;;;;;4.13;3.40;;;;;;;;;;4999495;28;20270;-69
2022/04/30 09:42:38;;;;;;;6.45;3.85;;;;;;;;;;5004852;28;20265;-69
2022/04/30 09:45:04;;;;;;;7.82;4.38;;;;;;;;;;5009840;28;20653;-69
2022/04/30 09:47:30;;;;;;;4.30;3.75;;;;;;;;;;5009826;28;20205;-69
2022/04/30 09:55:23;;;;;;;5.22;3.70;;;;;;;;;;5011301;28;20206;-70
2022/04/30 09:57:48;;;;;;;6.20;4.18;;;;;;;;;;5010767;28;20599;-70
2022/04/30 10:00:14;;;;;;;6.20;4.03;;;;;;;;;;5011509;28;20897;-70
2022/04/30 10:02:40;;;;;;;5.40;3.72;;;;;;;;;;5011834;28;20190;-70
2022/04/30 10:05:06;;;;;;;6.32;3.55;;;;;;;;;;5011717;28;20217;-70
2022/04/30 10:07:33;;;;;;;5.43;3.67;;;;;;;;;;5010166;28;20655;-70
2022/04/30 10:10:05;;;;;;;6.38;3.55;;;;;;;;;;5008143;28;20202;-70
2022/04/30 10:12:35;;;;;;;5.13;3.55;;;;;;;;;;5001932;28;20182;-70
2022/04/30 10:15:00;;;;;;;6.47;4.05;;;;;;;;;;4984957;28;20203;-70
2022/04/30 10:17:27;;;;;;;4.60;3.80;;;;;;;;;;4988333;28;20175;-70
2022/04/30 10:19:56;;;;;;;6.30;3.45;;;;;;;;;;5003936;28;20947;-68
2022/04/30 10:22:21;;;;;;;5.18;3.38;;;;;;;;;;5008465;28;20752;-70
2022/04/30 10:24:48;;;;;;;6.85;3.92;;;;;;;;;;5011213;28;20628;-70
2022/04/30 10:27:14;;;;;;;6.03;3.67;;;;;;;;;;5004218;28;20182;-70
2022/04/30 10:29:50;;;;;;;5.57;3.47;;;;;;;;;;5008707;28;20202;-70
2022/04/30 10:32:24;;;;;;;4.75;3.22;;;;;;;;;;5004404;28;20211;-70
2022/04/30 10:34:51;;;;;;;3.85;3.35;;;;;;;;;;5010170;28;20198;-70
2022/04/30 10:37:25;;;;;;;4.68;3.40;;;;;;;;;;5005694;28;20167;-70
2022/04/30 10:39:55;;;;;;;7.15;3.47;;;;;;;;;;5010298;28;20186;-71
2022/04/30 10:42:27;;;;;;;5.45;3.47;;;;;;;;;;5008179;28;20302;-70
2022/04/30 10:44:55;;;;;;;5.20;3.20;;;;;;;;;;5004237;28;20190;-68
2022/04/30 10:47:20;;;;;;;7.60;3.53;;;;;;;;;;5010097;28;20186;-70
2022/04/30 10:49:46;;;;;;;4.05;3.65;;;;;;;;;;5009103;28;20251;-71
2022/04/30 10:52:11;;;;;;;4.43;3.17;;;;;;;;;;5006452;28;20869;-70
2022/04/30 10:54:39;;;;;;;4.63;3.38;;;;;;;;;;5008975;28;20270;-71
2022/04/30 10:57:05;;;;;;;4.47;3.60;;;;;;;;;;5011113;28;20230;-71
2022/04/30 10:59:30;;;;;;;9.10;3.42;;;;;;;;;;5009917;28;20167;-70
2022/04/30 11:01:56;;;;;;;5.10;3.38;;;;;;;;;;5009294;28;20298;-69
2022/04/30 11:04:21;;;;;;;10.18;5.47;;;;;;;;;;5008836;28;20270;-69
2022/04/30 11:06:50;;;;;;;5.45;2.80;;;;;;;;;;5012037;28;20178;-68
2022/04/30 11:09:15;;;;;;;4.10;3.25;;;;;;;;;;5009898;28;20242;-72
2022/04/30 11:11:44;;;;;;;3.58;3.08;;;;;;;;;;5012430;28;20243;-71
2022/04/30 11:14:10;;;;;;;4.90;3.00;;;;;;;;;;5006350;28;20278;-71
2022/04/30 11:16:45;;;;;;;5.63;3.50;;;;;;;;;;5016811;28;20183;-71
2022/04/30 11:19:11;;;;;;;6.95;3.60;;;;;;;;;;5008643;28;20183;-71
2022/04/30 11:21:44;;;;;;;5.80;2.85;;;;;;;;;;5016585;28;20248;-71
2022/04/30 11:24:10;;;;;;;7.53;3.60;;;;;;;;;;5009417;28;20205;-70
2022/04/30 11:26:44;;;;;;;6.18;3.65;;;;;;;;;;5013879;28;20175;-71
2022/04/30 11:29:13;;;;;;;3.97;2.80;;;;;;;;;;5012135;28;20686;-70
2022/04/30 11:31:38;;;;;;;3.35;2.95;;;;;;;;;;5006593;28;20223;-70
2022/04/30 11:34:10;;;;;;;6.70;3.25;;;;;;;;;;5012869;28;20181;-70
2022/04/30 11:36:46;;;;;;;8.32;3.58;;;;;;;;;;5008978;28;20550;-70
2022/04/30 11:39:12;;;;;;;5.07;3.25;;;;;;;;;;5009659;28;20178;-70
2022/04/30 11:41:41;;;;;;;6.07;3.17;;;;;;;;;;5012686;28;20203;-70
2022/04/30 11:44:08;;;;;;;3.90;3.00;;;;;;;;;;5011618;28;20175;-68
2022/04/30 11:46:35;;;;;;;4.10;3.20;;;;;;;;;;5012251;28;20187;-70
2022/04/30 11:49:00;;;;;;;4.32;3.13;;;;;;;;;;5005460;28;20670;-68
2022/04/30 11:51:27;;;;;;;4.70;2.95;;;;;;;;;;5010016;28;20207;-71
2022/04/30 11:53:52;;;;;;;5.80;3.83;;;;;;;;;;5010931;28;20171;-71
2022/04/30 11:56:17;;;;;;;4.47;2.92;;;;;;;;;;5008557;28;20302;-70
2022/04/30 11:58:43;;;;;;;5.35;3.03;;;;;;;;;;5012698;28;20179;-70
2022/04/30 12:01:19;;;;;;;3.33;2.92;;;;;;;;;;5009114;28;20293;-70
2022/04/30 12:03:44;;;;;;;3.63;2.70;;;;;;;;;;5012079;28;20193;-70
2022/04/30 12:06:10;;;;;;;6.10;2.50;;;;;;;;;;5008295;28;20183;-70
2022/04/30 12:08:35;;;;;;;4.00;3.00;;;;;;;;;;5007234;28;20253;-71
2022/04/30 12:11:00;;;;;;;5.88;3.05;;;;;;;;;;5011079;28;20202;-71
2022/04/30 12:13:25;;;;;;;5.18;3.17;;;;;;;;;;5013660;28;20226;-71
2022/04/30 12:16:04;;;;;;;5.75;2.90;;;;;;;;;;5011728;28;20175;-69
2022/04/30 12:26:55;;;;;;;3.30;2.70;;;;;;;;;;5010469;28;20233;-70
2022/04/30 12:29:21;;;;;;;3.63;2.55;;;;;;;;;;5011419;28;20194;-71
2022/04/30 12:31:53;;;;;;;3.97;2.55;;;;;;;;;;5012585;28;20195;-71
2022/04/30 12:34:19;;;;;;;6.47;2.88;;;;;;;;;;5010230;28;20167;-69
2022/04/30 12:36:51;;;;;;;5.78;3.05;;;;;;;;;;5012579;28;20178;-71
2022/04/30 12:39:17;;;;;;;4.45;2.55;;;;;;;;;;5009139;28;22242;-70
2022/04/30 12:41:42;;;;;;;5.95;2.72;;;;;;;;;;5009228;28;20205;-69
2022/04/30 12:44:07;;;;;;;3.77;2.77;;;;;;;;;;5010878;28;20175;-71
2022/04/30 12:46:33;;;;;;;3.13;2.83;;;;;;;;;;5007458;28;20432;-71
2022/04/30 12:48:58;;;;;;;3.33;2.95;;;;;;;;;;5011126;28;20616;-69
2022/04/30 12:51:23;;;;;;;3.87;3.10;;;;;;;;;;5013336;28;20197;-71
2022/04/30 12:53:48;;;;;;;2.78;2.42;;;;;;;;;;5003141;28;20428;-70
2022/04/30 12:56:14;;;;;;;3.35;2.85;;;;;;;;;;5007604;28;20170;-71
2022/04/30 12:58:39;;;;;;;5.50;2.80;;;;;;;;;;5011166;28;20203;-68
2022/04/30 13:01:04;;;;;;;3.88;2.67;;;;;;;;;;5008267;28;20229;-69
2022/04/30 13:03:31;;;;;;;5.67;2.70;;;;;;;;;;5010831;28;20183;-71
2022/04/30 13:05:56;;;;;;;3.33;3.03;;;;;;;;;;5010466;28;20409;-71
2022/04/30 13:08:23;;;;;;;3.67;2.85;;;;;;;;;;5010675;28;20175;-69
2022/04/30 13:13:33;;;;;;;5.35;2.97;;;;;;;;;;5009022;28;20588;-70
2022/04/30 13:16:03;;;;;;;2.90;2.50;;;;;;;;;;5009784;28;20732;-69
2022/04/30 13:18:28;;;;;;;4.53;2.58;;;;;;;;;;5001722;28;20965;-70
2022/04/30 13:20:53;;;;;;;3.00;2.70;;;;;;;;;;4991054;28;20203;-70
2022/04/30 13:23:19;;;;;;;4.97;2.70;;;;;;;;;;5013964;28;20214;-70
2022/04/30 13:25:44;;;;;;;2.75;2.00;;;;;;;;;;5010518;28;20424;-70
2022/04/30 13:28:09;;;;;;;2.20;2.00;;;;;;;;;;5008628;28;20237;-70
2022/04/30 13:30:34;;;;;;;2.67;1.90;;;;;;;;;;5004416;28;20238;-70
2022/04/30 13:32:59;;;;;;;4.50;2.00;;;;;;;;;;5011350;28;20542;-71
2022/04/30 13:35:25;;;;;;;4.82;2.28;;;;;;;;;;5008135;28;20435;-70
2022/04/30 13:37:51;;;;;;;4.30;2.30;;;;;;;;;;5010290;28;20178;-70
2022/04/30 13:40:17;;;;;;;1.88;1.67;;;;;;;;;;5009648;28;20284;-70
2022/04/30 13:42:43;;;;;;;3.67;1.95;;;;;;;;;;5011473;28;20179;-70
2022/04/30 13:45:09;;;;;;;6.15;2.60;;;;;;;;;;5010043;28;20174;-70
2022/04/30 13:47:35;;;;;;;3.15;2.53;;;;;;;;;;5006518;28;20191;-70
2022/04/30 13:50:00;;;;;;;3.28;1.85;;;;;;;;;;5011474;28;20210;-70
2022/04/30 13:52:26;;;;;;;3.25;2.20;;;;;;;;;;5011838;28;20671;-70
2022/04/30 13:54:51;;;;;;;4.28;2.45;;;;;;;;;;5011205;28;20208;-70
2022/04/30 13:57:17;;;;;;;3.13;2.28;;;;;;;;;;5010401;28;20311;-70
2022/04/30 13:59:42;;;;;;;2.75;2.15;;;;;;;;;;5009784;28;20265;-70
2022/04/30 14:02:10;;;;;;;3.33;1.90;;;;;;;;;;5008544;28;20237;-70
2022/04/30 14:04:36;;;;;;;2.05;1.85;;;;;;;;;;5008961;28;20269;-70
2022/04/30 14:07:02;;;;;;;3.65;2.08;;;;;;;;;;5009310;28;20273;-69
2022/04/30 14:09:27;;;;;;;4.22;2.08;;;;;;;;;;5010023;28;20202;-68
2022/04/30 14:11:53;;;;;;;2.53;2.05;;;;;;;;;;5009494;28;20199;-68
2022/04/30 14:18:15;;;;;;;2.13;1.80;;;;;;;;;;5010294;28;20440;-71
2022/04/30 14:19:48;;;;;;;5.22;2.35;;;;;;;;;;5008292;28;20186;-68
2022/04/30 14:22:13;;;;;;;3.42;2.22;;;;;;;;;;5004438;28;20281;-70
2022/04/30 14:24:38;;;;;;;4.22;2.47;;;;;;;;;;5010996;28;20171;-70
2022/04/30 14:27:03;;;;;;;2.20;2.00;;;;;;;;;;5014229;28;20187;-70
2022/04/30 14:29:29;;;;;;;3.20;2.20;;;;;;;;;;5001891;28;20448;-71
2022/04/30 14:31:54;;;;;;;2.20;2.00;;;;;;;;;;5007029;28;20219;-70
2022/04/30 14:34:19;;;;;;;2.07;1.87;;;;;;;;;;5009411;28;20439;-71
2022/04/30 14:36:44;;;;;;;3.43;1.80;;;;;;;;;;5008880;28;20417;-71
2022/04/30 14:39:09;;;;;;;3.35;2.33;;;;;;;;;;5008772;28;20436;-69
2022/04/30 14:41:34;;;;;;;2.28;1.60;;;;;;;;;;5012489;28;20206;-70
2022/04/30 14:44:00;;;;;;;3.75;2.47;;;;;;;;;;5011461;28;20187;-71
2022/04/30 14:46:25;;;;;;;2.40;2.20;;;;;;;;;;5012392;28;20233;-70
2022/04/30 14:48:50;;;;;;;7.32;2.60;;;;;;;;;;5013569;28;20210;-70
2022/04/30 14:51:16;;;;;;;2.50;1.95;;;;;;;;;;5013494;28;20547;-70
2022/04/30 14:53:41;;;;;;;3.95;1.70;;;;;;;;;;5012143;28;20178;-71
2022/04/30 14:56:07;;;;;;;3.53;2.00;;;;;;;;;;5014773;28;20270;-68
2022/04/30 14:58:33;;;;;;;4.28;2.42;;;;;;;;;;5012229;28;20435;-70
2022/04/30 15:00:59;;;;;;;3.95;2.50;;;;;;;;;;5013876;28;20265;-70
2022/04/30 15:03:24;;;;;;;3.08;2.20;;;;;;;;;;5012737;28;20172;-70
2022/04/30 15:05:49;;;;;;;5.30;2.47;;;;;;;;;;5013120;28;20333;-70
2022/04/30 15:08:14;;;;;;;3.85;2.92;;;;;;;;;;5011544;28;20767;-70
2022/04/30 15:10:39;;;;;;;3.70;2.13;;;;;;;;;;5010436;28;20626;-70
2022/04/30 15:13:05;;;;;;;5.93;2.58;;;;;;;;;;5013605;28;20178;-71
2022/04/30 15:15:30;;;;;;;4.07;3.05;;;;;;;;;;5009059;28;20183;-70
2022/04/30 15:17:55;;;;;;;6.43;3.10;;;;;;;;;;5013055;28;20683;-70
2022/04/30 15:20:20;;;;;;;7.43;3.65;;;;;;;;;;5013747;28;20221;-71
2022/04/30 15:22:46;;;;;;;6.53;2.72;;;;;;;;;;5004389;28;20187;-70